Time;durP1;ratioP1;P1;durP2;ratioP2;P2;SDS_P1;SDS_P2;PMS_P1;PMS_P2;Temp;Humidity;BMP_temperature;BMP_pressure;BME280_temperature;BME280_humidity;BME280_pressure;Samples;Min_cycle;Max_cycle;Signal;HPM_P1;HPM_P2
2022/05/01 00:01:42;;;;;;;36.77;26.73;;;13.70;45.90;;;;;;4997643;28;20780;-70
2022/05/01 00:04:08;;;;;;;39.37;27.07;;;14.20;43.80;;;;;;4996859;28;20203;-70
2022/05/01 00:06:34;;;;;;;42.07;27.40;;;14.00;43.50;;;;;;4994494;28;20273;-71
2022/05/01 00:09:01;;;;;;;40.43;27.57;;;13.80;44.60;;;;;;4994797;28;20409;-71
2022/05/01 00:11:28;;;;;;;41.10;27.87;;;14.20;43.20;;;;;;4994590;28;20472;-70
2022/05/01 00:13:54;;;;;;;39.90;27.60;;;14.30;42.60;;;;;;4994028;28;20579;-69
2022/05/01 00:16:20;;;;;;;42.30;27.43;;;14.00;43.60;;;;;;4994621;28;20770;-69
2022/05/01 00:18:45;;;;;;;47.90;28.80;;;13.70;45.80;;;;;;4994182;28;20509;-70
2022/05/01 00:21:11;;;;;;;40.10;28.10;;;13.90;45.50;;;;;;4994301;28;20423;-70
2022/05/01 00:23:38;;;;;;;42.67;27.90;;;13.90;46.00;;;;;;4994201;28;20728;-69
2022/05/01 00:26:05;;;;;;;46.87;30.30;;;13.40;47.00;;;;;;4993940;28;20853;-70
2022/05/01 00:28:36;;;;;;;42.07;28.50;;;13.00;49.60;;;;;;4994555;28;20472;-69
2022/05/01 00:31:06;;;;;;;43.77;28.77;;;12.40;53.80;;;;;;4993868;28;20412;-69
2022/05/01 00:36:27;;;;;;;45.03;28.50;;;12.30;56.10;;;;;;4993843;28;20955;-70
2022/05/01 00:39:03;;;;;;;44.47;29.20;;;12.70;55.30;;;;;;4994335;28;20435;-69
2022/05/01 00:41:41;;;;;;;50.67;31.73;;;12.40;58.20;;;;;;4993955;28;20880;-69
2022/05/01 00:44:17;;;;;;;50.73;33.43;;;13.10;53.80;;;;;;4994049;28;20884;-70
2022/05/01 00:46:45;;;;;;;55.10;34.80;;;13.30;54.00;;;;;;4993822;28;20428;-70
2022/05/01 00:49:21;;;;;;;52.30;32.47;;;13.40;54.80;;;;;;4976287;28;20433;-69
2022/05/01 00:51:49;;;;;;;53.57;32.63;;;13.50;51.80;;;;;;4993709;28;20434;-70
2022/05/01 00:54:21;;;;;;;55.33;33.63;;;13.40;51.80;;;;;;4993906;28;20440;-70
2022/05/01 00:56:52;;;;;;;52.80;31.40;;;13.70;50.80;;;;;;4993799;28;20911;-71
2022/05/01 00:59:18;;;;;;;63.17;34.03;;;13.80;49.60;;;;;;4993897;28;20894;-70
2022/05/01 01:01:47;;;;;;;56.90;33.93;;;14.00;50.00;;;;;;4993275;28;20418;-69
2022/05/01 01:04:13;;;;;;;61.33;34.17;;;13.60;50.60;;;;;;4993677;28;20796;-69
2022/05/01 01:06:40;;;;;;;58.50;35.07;;;12.80;56.50;;;;;;4993436;28;20515;-69
2022/05/01 01:09:06;;;;;;;67.83;34.80;;;13.00;56.00;;;;;;4993438;28;20413;-69
2022/05/01 01:11:32;;;;;;;64.80;35.20;;;13.40;52.80;;;;;;4993328;28;20512;-70
2022/05/01 01:13:59;;;;;;;58.17;34.10;;;13.70;51.40;;;;;;4991925;28;20532;-71
2022/05/01 01:16:25;;;;;;;64.77;33.63;;;13.90;50.20;;;;;;4992157;28;20448;-69
2022/05/01 01:18:51;;;;;;;60.13;35.63;;;14.00;49.30;;;;;;4992290;28;20784;-69
2022/05/01 01:21:18;;;;;;;53.77;34.17;;;14.20;48.80;;;;;;4993185;28;20410;-69
2022/05/01 01:23:44;;;;;;;57.17;33.70;;;14.10;49.60;;;;;;4992767;28;20507;-69
2022/05/01 01:26:11;;;;;;;52.63;32.93;;;13.90;49.10;;;;;;4993173;28;20496;-69
2022/05/01 01:28:38;;;;;;;58.30;33.40;;;13.60;51.00;;;;;;4993166;28;20455;-70
2022/05/01 01:33:53;;;;;;;56.67;34.73;;;13.60;52.10;;;;;;4987796;28;20460;-70
2022/05/01 01:36:24;;;;;;;56.13;32.10;;;13.60;51.90;;;;;;4992766;28;20410;-70
2022/05/01 01:38:50;;;;;;;52.60;31.37;;;13.70;52.00;;;;;;4992905;28;20480;-71
2022/05/01 01:41:21;;;;;;;56.47;33.83;;;13.70;53.00;;;;;;4975146;28;20507;-71
2022/05/01 01:43:48;;;;;;;52.50;32.03;;;13.80;52.10;;;;;;4992460;28;20833;-70
2022/05/01 01:46:14;;;;;;;52.50;33.40;;;13.80;52.10;;;;;;4992879;28;20401;-69
2022/05/01 01:48:40;;;;;;;56.07;32.70;;;13.70;51.50;;;;;;4992649;28;20504;-69
2022/05/01 01:51:06;;;;;;;51.90;32.63;;;13.80;51.50;;;;;;4992676;28;20412;-70
2022/05/01 01:53:35;;;;;;;68.27;35.10;;;14.00;49.20;;;;;;4992317;28;20484;-70
2022/05/01 01:56:02;;;;;;;51.50;31.27;;;14.20;46.80;;;;;;4992290;28;20436;-70
2022/05/01 01:58:29;;;;;;;48.23;30.70;;;14.20;45.40;;;;;;4992745;28;20529;-69
2022/05/01 02:00:55;;;;;;;53.13;31.73;;;14.00;47.10;;;;;;4992273;28;20434;-69
2022/05/01 02:03:22;;;;;;;53.40;29.30;;;13.80;49.00;;;;;;4992418;28;20957;-70
2022/05/01 02:05:49;;;;;;;46.87;29.10;;;13.60;50.70;;;;;;4991675;28;20432;-69
2022/05/01 02:08:15;;;;;;;53.83;30.33;;;13.50;51.00;;;;;;4992467;28;20409;-71
2022/05/01 02:10:41;;;;;;;50.70;27.97;;;13.40;50.30;;;;;;4992480;28;20487;-70
2022/05/01 02:13:07;;;;;;;56.73;30.00;;;13.40;50.50;;;;;;4992306;28;20456;-69
2022/05/01 02:15:35;;;;;;;47.03;30.80;;;13.40;50.20;;;;;;4991876;28;20772;-70
2022/05/01 02:18:01;;;;;;;53.00;28.23;;;13.40;49.80;;;;;;4992406;28;20416;-71
2022/05/01 02:20:28;;;;;;;51.93;29.50;;;13.40;49.30;;;;;;4992272;28;20405;-70
2022/05/01 02:22:54;;;;;;;55.30;29.23;;;13.30;49.10;;;;;;4991830;28;20789;-69
2022/05/01 02:25:23;;;;;;;47.47;28.90;;;13.10;49.50;;;;;;4992046;28;20410;-70
2022/05/01 02:27:49;;;;;;;43.73;28.50;;;13.30;49.40;;;;;;4974536;28;20858;-69
2022/05/01 02:30:16;;;;;;;53.43;30.07;;;13.30;48.60;;;;;;4991647;28;20509;-71
2022/05/01 02:32:42;;;;;;;50.80;27.93;;;13.10;49.00;;;;;;4991775;28;20476;-70
2022/05/01 02:35:09;;;;;;;47.67;28.00;;;13.00;49.80;;;;;;4992004;28;20401;-70
2022/05/01 02:37:35;;;;;;;45.63;29.27;;;13.00;49.10;;;;;;4991593;28;20456;-71
2022/05/01 02:40:01;;;;;;;50.50;29.60;;;12.90;49.40;;;;;;4992060;28;20409;-71
2022/05/01 02:42:27;;;;;;;54.20;29.60;;;12.90;49.60;;;;;;4991680;28;21021;-72
2022/05/01 02:44:53;;;;;;;46.30;29.90;;;12.90;49.80;;;;;;4992081;28;20504;-72
2022/05/01 02:47:18;;;;;;;51.20;29.93;;;13.00;50.90;;;;;;4991700;28;20266;-71
2022/05/01 02:49:44;;;;;;;50.83;30.93;;;12.80;50.40;;;;;;4992147;28;20273;-71
2022/05/01 02:52:10;;;;;;;48.30;28.77;;;12.80;51.20;;;;;;4991393;28;20217;-71
2022/05/01 02:54:35;;;;;;;46.20;29.13;;;12.90;49.70;;;;;;4991673;28;20206;-72
2022/05/01 02:57:02;;;;;;;48.33;28.73;;;13.10;49.50;;;;;;4991919;28;20413;-71
2022/05/01 02:59:28;;;;;;;48.17;29.30;;;13.10;49.10;;;;;;4991600;28;20550;-70
2022/05/01 03:01:57;;;;;;;47.40;28.97;;;12.90;49.40;;;;;;4991508;28;20418;-71
2022/05/01 03:04:23;;;;;;;47.93;28.17;;;12.80;50.70;;;;;;4991805;28;20540;-71
2022/05/01 03:06:49;;;;;;;48.20;29.70;;;12.90;49.40;;;;;;4991747;28;20420;-72
2022/05/01 03:09:15;;;;;;;48.57;29.43;;;12.90;50.10;;;;;;4991250;28;20421;-71
2022/05/01 03:11:40;;;;;;;50.73;28.70;;;12.70;51.10;;;;;;4991496;28;20204;-71
2022/05/01 03:14:09;;;;;;;44.57;28.30;;;12.70;50.40;;;;;;4991630;28;20194;-71
2022/05/01 03:16:36;;;;;;;50.33;29.73;;;12.60;50.10;;;;;;4991918;28;20538;-70
2022/05/01 03:24:30;;;;;;;53.50;30.70;;;12.50;50.40;;;;;;4991616;28;20580;-70
2022/05/01 03:26:55;;;;;;;49.27;28.67;;;12.30;50.70;;;;;;4991605;28;20981;-71
2022/05/01 03:29:21;;;;;;;49.33;29.20;;;12.60;51.00;;;;;;4991476;28;20627;-72
2022/05/01 03:31:48;;;;;;;51.30;30.70;;;12.30;51.80;;;;;;4991028;28;20546;-70
2022/05/01 03:34:14;;;;;;;48.57;29.03;;;12.20;51.70;;;;;;4991554;28;20308;-71
2022/05/01 03:36:40;;;;;;;49.72;28.65;;;12.20;51.30;;;;;;4991429;28;20412;-71
2022/05/01 03:39:06;;;;;;;51.47;29.80;;;12.20;51.40;;;;;;4991770;28;20185;-70
2022/05/01 03:41:32;;;;;;;50.83;30.10;;;12.40;50.80;;;;;;4993583;28;20170;-70
2022/05/01 03:43:58;;;;;;;55.17;30.13;;;12.30;50.70;;;;;;4994650;28;20204;-70
2022/05/01 03:46:24;;;;;;;54.83;30.80;;;12.50;51.30;;;;;;4995126;28;20720;-71
2022/05/01 03:48:51;;;;;;;49.58;28.15;;;12.40;50.80;;;;;;4995051;28;20413;-71
2022/05/01 03:51:17;;;;;;;50.30;29.07;;;12.40;51.20;;;;;;4994957;28;20186;-72
2022/05/01 03:53:45;;;;;;;51.10;29.10;;;12.50;51.90;;;;;;4994005;28;20472;-72
2022/05/01 03:56:11;;;;;;;56.43;29.10;;;12.40;53.00;;;;;;4994930;28;20413;-72
2022/05/01 03:58:38;;;;;;;55.00;31.80;;;12.40;52.20;;;;;;4995066;28;20415;-71
2022/05/01 04:01:03;;;;;;;51.90;31.17;;;12.40;52.50;;;;;;4994779;28;20475;-70
2022/05/01 04:03:29;;;;;;;54.23;29.63;;;12.50;53.10;;;;;;4994388;28;20684;-71
2022/05/01 04:05:55;;;;;;;60.17;33.67;;;12.90;53.40;;;;;;4994521;28;20181;-71
2022/05/01 04:08:21;;;;;;;60.30;32.63;;;12.60;52.90;;;;;;4994643;28;20795;-71
2022/05/01 04:10:47;;;;;;;64.23;32.10;;;13.10;53.40;;;;;;4994605;28;20197;-70
2022/05/01 04:13:13;;;;;;;56.17;31.70;;;12.80;53.00;;;;;;4994224;28;20579;-71
2022/05/01 04:15:40;;;;;;;55.93;31.30;;;12.90;52.40;;;;;;4994331;28;20472;-71
2022/05/01 04:18:08;;;;;;;50.50;29.50;;;13.30;52.80;;;;;;4994422;28;20887;-69
2022/05/01 04:20:35;;;;;;;57.27;32.47;;;12.90;52.40;;;;;;4994505;28;20419;-71
2022/05/01 04:23:03;;;;;;;59.70;31.87;;;13.00;52.10;;;;;;4994082;28;20451;-70
2022/05/01 04:25:32;;;;;;;49.27;29.30;;;12.90;53.00;;;;;;4994494;28;20424;-71
2022/05/01 04:28:03;;;;;;;39.20;25.97;;;12.90;51.80;;;;;;4993957;28;20488;-71
2022/05/01 04:30:31;;;;;;;40.30;26.07;;;13.20;47.70;;;;;;4994324;28;20420;-71
2022/05/01 04:33:06;;;;;;;43.90;26.97;;;13.30;47.60;;;;;;4993828;28;20489;-72
2022/05/01 04:35:34;;;;;;;43.67;27.00;;;13.30;49.10;;;;;;4994132;28;20412;-71
2022/05/01 04:38:04;;;;;;;62.33;29.87;;;13.20;50.30;;;;;;4993497;28;20818;-71
2022/05/01 04:40:34;;;;;;;44.90;27.50;;;13.20;50.30;;;;;;4994091;28;20406;-71
2022/05/01 04:43:08;;;;;;;49.30;27.53;;;13.10;52.30;;;;;;4993584;28;20433;-71
2022/05/01 04:45:36;;;;;;;37.53;24.13;;;13.10;49.80;;;;;;4994013;28;20404;-71
2022/05/01 04:48:02;;;;;;;37.10;23.90;;;13.20;48.50;;;;;;4993655;28;20511;-71
2022/05/01 04:50:28;;;;;;;37.60;23.30;;;13.20;48.70;;;;;;4993940;28;20891;-72
2022/05/01 04:52:56;;;;;;;35.73;23.50;;;13.20;47.90;;;;;;4992936;28;20489;-72
2022/05/01 04:55:22;;;;;;;35.33;22.33;;;13.20;48.70;;;;;;4994316;28;20485;-72
2022/05/01 04:57:49;;;;;;;40.10;25.00;;;13.30;48.60;;;;;;4993399;28;20461;-71
2022/05/01 05:00:18;;;;;;;44.53;25.70;;;13.30;47.90;;;;;;4993804;28;20433;-71
2022/05/01 05:02:47;;;;;;;34.67;23.30;;;13.40;47.90;;;;;;4993533;28;20519;-71
2022/05/01 05:05:12;;;;;;;39.13;25.80;;;13.40;48.10;;;;;;4993235;28;20415;-71
2022/05/01 05:07:39;;;;;;;36.70;23.83;;;13.40;49.30;;;;;;4994074;28;20757;-70
2022/05/01 05:10:07;;;;;;;34.53;22.70;;;13.40;49.60;;;;;;4993175;28;20723;-71
2022/05/01 05:12:34;;;;;;;33.90;22.90;;;13.40;50.20;;;;;;4993226;28;20599;-71
2022/05/01 05:15:00;;;;;;;36.87;24.00;;;13.40;49.50;;;;;;4993273;28;20412;-70
2022/05/01 05:17:27;;;;;;;34.77;23.40;;;13.60;51.00;;;;;;4993590;28;20464;-71
2022/05/01 05:19:54;;;;;;;38.30;23.93;;;13.60;49.70;;;;;;4992925;28;20417;-71
2022/05/01 05:22:20;;;;;;;36.23;22.57;;;13.70;50.20;;;;;;4993013;28;20429;-69
2022/05/01 05:24:46;;;;;;;38.87;23.63;;;13.70;49.90;;;;;;4993086;28;20971;-71
2022/05/01 05:27:13;;;;;;;32.77;21.60;;;13.70;49.00;;;;;;4993140;28;20420;-71
2022/05/01 05:29:39;;;;;;;35.30;23.70;;;13.70;49.00;;;;;;4975118;28;20520;-72
2022/05/01 05:32:06;;;;;;;32.43;22.83;;;13.80;49.40;;;;;;4992851;28;20453;-71
2022/05/01 05:34:31;;;;;;;35.97;22.90;;;13.80;47.50;;;;;;4992861;28;20707;-71
2022/05/01 05:36:57;;;;;;;36.23;22.17;;;13.80;46.90;;;;;;4993064;28;20442;-71
2022/05/01 05:39:23;;;;;;;34.13;21.63;;;13.80;46.40;;;;;;4975542;28;20584;-71
2022/05/01 05:41:49;;;;;;;33.97;21.90;;;13.80;45.70;;;;;;4992330;28;20480;-71
2022/05/01 05:44:15;;;;;;;36.50;23.40;;;13.70;46.50;;;;;;4992535;28;20460;-71
2022/05/01 05:46:41;;;;;;;32.80;21.70;;;13.60;45.60;;;;;;4992776;28;20416;-70
2022/05/01 05:49:07;;;;;;;42.53;23.47;;;13.40;46.30;;;;;;4992566;28;20619;-70
2022/05/01 05:51:32;;;;;;;33.67;22.13;;;13.30;47.80;;;;;;4992121;28;20182;-71
2022/05/01 05:53:58;;;;;;;35.60;24.60;;;13.10;48.90;;;;;;4992171;28;20455;-69
2022/05/01 05:56:24;;;;;;;37.43;22.63;;;13.10;49.30;;;;;;4992947;28;20554;-71
2022/05/01 05:58:50;;;;;;;32.30;21.33;;;13.00;50.10;;;;;;4992609;28;20277;-71
2022/05/01 06:01:16;;;;;;;33.53;22.67;;;13.10;50.60;;;;;;4992470;28;20417;-70
2022/05/01 06:03:42;;;;;;;32.33;22.20;;;12.60;48.80;;;;;;4991461;28;20452;-71
2022/05/01 06:06:08;;;;;;;34.00;22.97;;;12.30;50.70;;;;;;4992255;28;20422;-71
2022/05/01 06:08:38;;;;;;;35.63;23.37;;;12.70;51.10;;;;;;4992584;28;20415;-71
2022/05/01 06:11:04;;;;;;;31.47;22.43;;;13.00;48.70;;;;;;4992528;28;20453;-70
2022/05/01 06:13:30;;;;;;;36.10;24.50;;;13.30;48.00;;;;;;4991546;28;20468;-70
2022/05/01 06:15:57;;;;;;;35.77;23.53;;;13.40;47.10;;;;;;4992140;28;20488;-71
2022/05/01 06:18:22;;;;;;;36.30;23.40;;;13.50;47.80;;;;;;4992132;28;20476;-71
2022/05/01 06:20:49;;;;;;;36.63;22.83;;;13.60;47.70;;;;;;4992108;28;20413;-71
2022/05/01 06:23:15;;;;;;;39.20;25.13;;;13.60;46.80;;;;;;4991576;28;20253;-71
2022/05/01 06:25:46;;;;;;;35.37;23.83;;;13.50;47.60;;;;;;4992341;28;20430;-72
2022/05/01 06:28:12;;;;;;;38.17;24.90;;;13.90;48.20;;;;;;4992440;28;20569;-72
2022/05/01 06:30:49;;;;;;;36.53;23.43;;;13.70;47.00;;;;;;4992163;28;20417;-71
2022/05/01 06:33:17;;;;;;;39.97;23.40;;;13.70;45.70;;;;;;4974216;28;20470;-70
2022/05/01 06:35:44;;;;;;;36.83;24.97;;;14.20;43.90;;;;;;4992252;28;20472;-72
2022/05/01 06:38:10;;;;;;;38.80;24.10;;;14.20;45.10;;;;;;4991997;28;20497;-70
2022/05/01 06:40:38;;;;;;;46.73;25.50;;;14.30;45.00;;;;;;4991893;28;20407;-70
2022/05/01 06:43:05;;;;;;;37.93;26.03;;;14.30;44.60;;;;;;4991633;28;20488;-70
2022/05/01 06:45:30;;;;;;;33.40;23.67;;;14.40;44.90;;;;;;4991480;28;20423;-70
2022/05/01 06:47:56;;;;;;;30.87;22.10;;;13.70;44.70;;;;;;4974230;28;20432;-71
2022/05/01 06:50:21;;;;;;;35.53;23.83;;;13.80;46.40;;;;;;4991903;28;20523;-71
2022/05/01 06:52:47;;;;;;;33.20;23.70;;;14.20;44.50;;;;;;4991480;28;20295;-71
2022/05/01 06:55:14;;;;;;;43.20;23.80;;;14.50;43.90;;;;;;4991294;28;20178;-70
2022/05/01 06:57:39;;;;;;;31.70;22.10;;;14.30;44.20;;;;;;4991986;28;20187;-71
2022/05/01 07:00:06;;;;;;;34.33;21.27;;;14.30;42.80;;;;;;4974362;28;20423;-71
2022/05/01 07:02:32;;;;;;;38.20;21.43;;;14.00;43.00;;;;;;4991206;28;20293;-70
2022/05/01 07:04:58;;;;;;;30.37;21.17;;;13.70;44.00;;;;;;4991742;28;20500;-72
2022/05/01 07:07:23;;;;;;;30.97;21.73;;;13.60;45.10;;;;;;4991877;28;20709;-71
2022/05/01 07:09:50;;;;;;;29.53;21.43;;;13.40;44.00;;;;;;4991860;28;20187;-71
2022/05/01 07:12:16;;;;;;;32.40;21.83;;;13.50;47.00;;;;;;4973404;28;20828;-71
2022/05/01 07:14:43;;;;;;;31.80;21.83;;;13.60;45.30;;;;;;4992370;28;20505;-70
2022/05/01 07:17:09;;;;;;;31.40;21.50;;;13.70;46.30;;;;;;4995598;28;20413;-70
2022/05/01 07:19:35;;;;;;;29.87;21.80;;;13.20;45.90;;;;;;4978062;28;20566;-70
2022/05/01 07:22:00;;;;;;;37.47;24.07;;;12.80;48.40;;;;;;4994718;28;20319;-68
2022/05/01 07:24:26;;;;;;;38.87;22.97;;;12.80;49.00;;;;;;4995230;28;20820;-70
2022/05/01 07:26:52;;;;;;;38.00;23.07;;;13.20;48.20;;;;;;4995585;28;20343;-70
2022/05/01 07:29:17;;;;;;;34.43;23.27;;;13.50;46.80;;;;;;4995199;28;20268;-70
2022/05/01 07:31:43;;;;;;;37.00;24.50;;;13.80;46.90;;;;;;4977007;28;20179;-70
2022/05/01 07:34:10;;;;;;;38.30;25.07;;;14.10;44.60;;;;;;4994585;28;20223;-69
2022/05/01 07:36:36;;;;;;;40.73;25.33;;;13.30;48.40;;;;;;4995025;28;20717;-70
2022/05/01 07:39:02;;;;;;;40.50;25.20;;;13.40;48.60;;;;;;4995254;28;20812;-70
2022/05/01 07:41:28;;;;;;;44.50;24.30;;;13.90;47.90;;;;;;4995375;28;20734;-70
2022/05/01 07:43:57;;;;;;;44.60;26.77;;;14.40;44.30;;;;;;4977052;28;20453;-71
2022/05/01 07:46:23;;;;;;;49.80;27.37;;;17.20;48.20;;;;;;4994806;28;20213;-70
2022/05/01 07:48:49;;;;;;;42.63;27.20;;;14.20;44.90;;;;;;4977584;28;20448;-70
2022/05/01 07:51:17;;;;;;;58.27;29.90;;;13.60;48.20;;;;;;4994778;28;20180;-70
2022/05/01 07:53:43;;;;;;;50.63;26.87;;;14.20;46.00;;;;;;4993938;28;21003;-70
2022/05/01 07:56:09;;;;;;;56.47;29.80;;;14.30;45.00;;;;;;4975321;28;20520;-70
2022/05/01 07:58:35;;;;;;;46.00;30.83;;;14.40;45.20;;;;;;4975261;28;20422;-70
2022/05/01 08:01:02;;;;;;;53.57;27.50;;;14.60;44.60;;;;;;4975219;28;20427;-70
2022/05/01 08:06:13;;;;;;;48.60;28.97;;;14.60;45.30;;;;;;4992839;28;20429;-70
2022/05/01 08:08:40;;;;;;;47.70;28.00;;;14.60;42.80;;;;;;4994366;28;20925;-70
2022/05/01 08:11:06;;;;;;;47.53;28.03;;;14.30;43.90;;;;;;4994175;28;20492;-70
2022/05/01 08:13:32;;;;;;;47.97;29.07;;;14.30;44.10;;;;;;4993902;28;20471;-69
2022/05/01 08:15:58;;;;;;;43.00;27.13;;;14.20;46.50;;;;;;4994161;28;20409;-70
2022/05/01 08:21:08;;;;;;;45.27;28.70;;;14.10;44.50;;;;;;4994487;28;20228;-70
2022/05/01 08:23:36;;;;;;;46.63;27.17;;;14.50;43.30;;;;;;4993926;28;20444;-70
2022/05/01 08:26:06;;;;;;;42.73;27.10;;;14.90;43.40;;;;;;4993936;28;20166;-71
2022/05/01 08:28:39;;;;;;;51.93;28.83;;;15.30;41.90;;;;;;4994402;28;20441;-71
2022/05/01 08:31:06;;;;;;;51.07;30.00;;;15.30;43.10;;;;;;4994398;28;20448;-71
2022/05/01 08:33:33;;;;;;;46.37;27.80;;;15.40;42.60;;;;;;4994156;28;20453;-70
2022/05/01 08:35:59;;;;;;;47.47;26.60;;;15.30;40.00;;;;;;4992957;28;21217;-71
2022/05/01 08:38:25;;;;;;;46.50;28.27;;;15.70;41.00;;;;;;4994203;28;20416;-69
2022/05/01 08:40:52;;;;;;;42.57;28.37;;;15.20;40.30;;;;;;4994067;28;20511;-70
2022/05/01 08:43:19;;;;;;;41.87;25.97;;;14.50;42.00;;;;;;4993654;28;20460;-70
2022/05/01 08:45:54;;;;;;;51.47;29.80;;;14.30;44.30;;;;;;4993696;28;20938;-70
2022/05/01 08:48:44;;;;;;;51.40;27.83;;;14.80;41.90;;;;;;4993846;28;20416;-69
2022/05/01 08:51:11;;;;;;;46.40;27.07;;;14.50;43.40;;;;;;4993855;28;20492;-70
2022/05/01 08:53:37;;;;;;;50.60;28.53;;;14.20;44.10;;;;;;4993354;28;20469;-70
2022/05/01 08:56:06;;;;;;;50.40;26.83;;;14.30;43.70;;;;;;4993565;28;20827;-69
2022/05/01 08:58:33;;;;;;;45.47;28.43;;;14.40;43.40;;;;;;4993834;28;20409;-69
2022/05/01 09:00:59;;;;;;;46.93;27.13;;;14.70;43.00;;;;;;4993860;28;20538;-70
2022/05/01 09:03:25;;;;;;;66.77;34.23;;;15.00;41.90;;;;;;4993387;28;20576;-70
2022/05/01 09:05:51;;;;;;;46.43;27.73;;;15.20;42.10;;;;;;4993429;28;20181;-70
2022/05/01 09:08:17;;;;;;;50.40;28.70;;;15.40;41.50;;;;;;4973884;28;20405;-71
2022/05/01 09:10:43;;;;;;;45.17;26.53;;;14.90;41.40;;;;;;4974214;28;20911;-70
2022/05/01 09:13:09;;;;;;;47.23;26.60;;;15.40;40.80;;;;;;4973770;28;20213;-70
2022/05/01 09:15:36;;;;;;;47.90;27.60;;;16.00;39.40;;;;;;4973816;28;20417;-69
2022/05/01 09:18:08;;;;;;;44.40;26.37;;;15.60;38.70;;;;;;4987535;28;20421;-72
2022/05/01 09:20:38;;;;;;;38.80;26.63;;;15.90;38.70;;;;;;4993404;28;20907;-72
2022/05/01 09:23:05;;;;;;;40.80;25.10;;;15.90;41.60;;;;;;4993371;28;20432;-72
2022/05/01 09:25:32;;;;;;;44.80;25.43;;;16.10;40.20;;;;;;4993258;28;20800;-72
2022/05/01 09:28:02;;;;;;;40.70;26.23;;;16.20;38.50;;;;;;4992497;28;20452;-72
2022/05/01 09:30:36;;;;;;;46.60;27.83;;;16.30;37.20;;;;;;4992949;28;20442;-70
2022/05/01 09:33:02;;;;;;;46.07;27.00;;;16.70;35.90;;;;;;4992678;28;20492;-71
2022/05/01 09:35:31;;;;;;;46.90;27.23;;;16.80;37.30;;;;;;4993045;28;20399;-73
2022/05/01 09:38:13;;;;;;;43.27;25.77;;;17.00;36.60;;;;;;4991942;28;20951;-73
2022/05/01 09:40:39;;;;;;;50.07;29.63;;;17.10;36.10;;;;;;4989771;28;20430;-72
2022/05/01 09:43:04;;;;;;;50.57;28.43;;;17.10;34.70;;;;;;4992610;28;20487;-71
2022/05/01 09:45:31;;;;;;;42.83;27.70;;;17.20;35.20;;;;;;4993012;28;21334;-70
2022/05/01 09:47:57;;;;;;;45.33;25.60;;;17.00;37.90;;;;;;4992335;28;20216;-71
2022/05/01 09:50:40;;;;;;;40.50;25.40;;;17.30;34.60;;;;;;4992859;28;20847;-71
2022/05/01 09:53:06;;;;;;;51.13;25.60;;;17.60;34.00;;;;;;4991998;28;20394;-69
2022/05/01 09:55:32;;;;;;;41.70;25.90;;;17.90;33.00;;;;;;4992595;28;20422;-71
2022/05/01 09:58:14;;;;;;;45.70;26.50;;;18.10;32.80;;;;;;4992252;28;20187;-71
2022/05/01 10:00:44;;;;;;;38.70;23.43;;;18.00;32.80;;;;;;4992599;28;20411;-71
2022/05/01 10:03:23;;;;;;;41.50;26.00;;;17.40;35.00;;;;;;4992389;28;20458;-70
2022/05/01 10:05:50;;;;;;;39.63;26.33;;;17.10;35.20;;;;;;4992249;28;20915;-70
2022/05/01 10:08:18;;;;;;;39.40;25.00;;;16.80;37.60;;;;;;4992122;28;20433;-70
2022/05/01 10:10:46;;;;;;;39.43;25.03;;;16.00;35.80;;;;;;4992361;28;20421;-70
2022/05/01 10:13:13;;;;;;;36.23;24.07;;;16.20;36.90;;;;;;4992060;28;20831;-70
2022/05/01 10:15:39;;;;;;;39.00;24.80;;;15.70;38.00;;;;;;4992047;28;20424;-70
2022/05/01 10:18:05;;;;;;;37.17;23.23;;;15.50;36.50;;;;;;4992216;28;20434;-71
2022/05/01 10:20:33;;;;;;;39.37;24.63;;;16.40;33.80;;;;;;4992117;28;20418;-69
2022/05/01 10:23:01;;;;;;;37.77;24.80;;;16.50;35.60;;;;;;4991424;28;20880;-71
2022/05/01 10:25:28;;;;;;;43.57;25.87;;;17.40;34.30;;;;;;4992190;28;20501;-71
2022/05/01 10:28:18;;;;;;;38.60;23.70;;;18.30;33.00;;;;;;4992056;28;20422;-71
2022/05/01 10:34:25;;;;;;;40.93;24.83;;;17.50;30.80;;;;;;4961176;28;20830;-70
2022/05/01 10:37:09;;;;;;;36.80;22.10;;;17.80;29.90;;;;;;4991914;28;20391;-71
2022/05/01 10:39:38;;;;;;;35.73;22.03;;;16.80;32.60;;;;;;4991936;28;20926;-69
2022/05/01 10:42:05;;;;;;;33.40;22.40;;;16.50;32.50;;;;;;4991627;28;20490;-70
2022/05/01 10:44:35;;;;;;;32.50;20.70;;;17.20;32.20;;;;;;4991040;28;20476;-71
2022/05/01 10:47:05;;;;;;;30.70;21.17;;;16.90;31.60;;;;;;4991852;28;20410;-70
2022/05/01 10:49:39;;;;;;;33.20;21.13;;;17.70;32.10;;;;;;4991634;28;20413;-71
2022/05/01 10:52:22;;;;;;;26.87;19.10;;;18.80;27.00;;;;;;4991452;28;20553;-71
2022/05/01 10:54:54;;;;;;;27.63;18.80;;;19.30;28.30;;;;;;4991246;28;20951;-71
2022/05/01 10:57:20;;;;;;;31.00;19.47;;;19.20;29.00;;;;;;4991790;28;20406;-70
2022/05/01 10:59:48;;;;;;;31.30;20.83;;;19.30;29.00;;;;;;4991602;28;20771;-70
2022/05/01 11:02:38;;;;;;;33.60;21.10;;;18.70;26.80;;;;;;4991528;28;21016;-70
2022/05/01 11:05:05;;;;;;;25.53;17.93;;;17.10;30.20;;;;;;4991190;28;20421;-70
2022/05/01 11:07:34;;;;;;;29.77;19.30;;;15.70;33.40;;;;;;4991723;28;20445;-71
2022/05/01 11:10:00;;;;;;;27.40;18.43;;;16.30;31.00;;;;;;4991420;28;20469;-70
2022/05/01 11:12:27;;;;;;;28.40;17.30;;;17.10;31.00;;;;;;4991324;28;20469;-70
2022/05/01 11:14:59;;;;;;;24.37;15.37;;;17.50;30.00;;;;;;4991203;28;20424;-72
2022/05/01 11:17:39;;;;;;;23.70;16.57;;;18.00;27.50;;;;;;4991501;28;20540;-70
2022/05/01 11:20:23;;;;;;;20.60;15.97;;;16.30;30.00;;;;;;4991610;28;20988;-71
2022/05/01 11:22:49;;;;;;;27.13;18.13;;;16.10;30.90;;;;;;4990886;28;20499;-70
2022/05/01 11:25:19;;;;;;;25.93;17.10;;;15.80;32.60;;;;;;4991460;28;20752;-71
2022/05/01 11:27:48;;;;;;;21.17;15.43;;;16.70;31.00;;;;;;4991425;28;20927;-71
2022/05/01 11:30:22;;;;;;;22.07;16.77;;;17.80;29.10;;;;;;4991521;28;20927;-71
2022/05/01 11:32:48;;;;;;;22.87;16.57;;;18.50;26.80;;;;;;4990883;28;21009;-71
2022/05/01 11:35:14;;;;;;;23.70;15.20;;;19.60;28.00;;;;;;4991383;28;20523;-71
2022/05/01 11:37:47;;;;;;;20.93;14.30;;;20.50;25.10;;;;;;4991446;28;20899;-72
2022/05/01 11:40:22;;;;;;;21.17;13.80;;;19.30;26.00;;;;;;4991483;28;20414;-70
2022/05/01 11:42:49;;;;;;;17.07;13.13;;;20.30;25.60;;;;;;4990912;28;20981;-71
2022/05/01 11:45:18;;;;;;;16.17;12.90;;;19.00;25.30;;;;;;4991094;28;20918;-71
2022/05/01 11:47:48;;;;;;;17.90;13.37;;;18.40;26.40;;;;;;4991437;28;20412;-71
2022/05/01 11:50:19;;;;;;;19.60;14.20;;;17.20;28.10;;;;;;4991529;28;20752;-71
2022/05/01 11:52:49;;;;;;;20.07;13.80;;;18.30;28.20;;;;;;4990490;28;20473;-71
2022/05/01 11:55:19;;;;;;;22.07;14.13;;;19.30;25.50;;;;;;4973673;28;20415;-71
2022/05/01 12:03:27;;;;;;;15.70;11.93;;;20.30;24.50;;;;;;4994161;28;20511;-71
2022/05/01 12:05:52;;;;;;;19.40;11.93;;;20.40;23.60;;;;;;4994448;28;20429;-72
2022/05/01 12:08:21;;;;;;;14.60;10.23;;;20.00;23.90;;;;;;4994707;28;20415;-71
2022/05/01 12:10:48;;;;;;;14.57;10.73;;;19.50;23.30;;;;;;4994547;28;20405;-71
2022/05/01 12:13:18;;;;;;;21.73;12.43;;;19.60;25.70;;;;;;4994435;28;20459;-71
2022/05/01 12:15:44;;;;;;;17.30;12.33;;;18.60;25.00;;;;;;4994015;28;20424;-72
2022/05/01 12:18:09;;;;;;;16.73;12.07;;;19.10;27.00;;;;;;4994592;28;20504;-70
2022/05/01 12:20:35;;;;;;;16.30;11.13;;;18.80;25.40;;;;;;4994515;28;20498;-71
2022/05/01 12:23:01;;;;;;;15.47;12.37;;;18.90;25.20;;;;;;4994334;28;20240;-71
2022/05/01 12:25:26;;;;;;;17.40;11.70;;;19.00;25.30;;;;;;4993957;28;20238;-72
2022/05/01 12:27:52;;;;;;;14.90;12.23;;;19.60;26.40;;;;;;4994616;28;20204;-72
2022/05/01 12:30:22;;;;;;;14.50;9.90;;;19.80;24.90;;;;;;4994209;28;20203;-71
2022/05/01 12:32:54;;;;;;;13.67;10.10;;;20.70;24.10;;;;;;4994026;28;20470;-71
2022/05/01 12:35:21;;;;;;;17.43;11.07;;;19.50;23.50;;;;;;4994014;28;20512;-71
2022/05/01 12:37:48;;;;;;;15.07;10.37;;;19.30;24.30;;;;;;4993865;28;20439;-72
2022/05/01 12:43:50;;;;;;;13.53;11.00;;;20.70;24.40;;;;;;4994270;28;20436;-70
2022/05/01 12:45:53;;;;;;;12.63;9.60;;;21.50;20.90;;;;;;4994067;28;20936;-71
2022/05/01 12:48:20;;;;;;;12.27;9.57;;;21.50;21.00;;;;;;4993486;28;20429;-72
2022/05/01 12:50:51;;;;;;;12.60;9.73;;;21.00;22.40;;;;;;4989679;28;20940;-70
2022/05/01 12:53:25;;;;;;;12.47;9.67;;;22.70;19.70;;;;;;4991808;28;20571;-71
2022/05/01 12:55:51;;;;;;;14.20;9.70;;;22.40;19.80;;;;;;4996386;28;20440;-72
2022/05/01 12:58:30;;;;;;;11.70;8.80;;;20.80;22.10;;;;;;4996960;28;21102;-72
2022/05/01 13:00:56;;;;;;;14.37;10.13;;;19.80;23.90;;;;;;4993742;28;20436;-72